Alsip, IL

4:56 PM CST on November 11, 2019 (GMT -0600)
Navajo Hills | | Change Station
Active Advisory: Lakeshore Flood Warning

Elev 620 ft 41.68 °N, 87.76 °W | Updated 46 seconds ago

Snow
Snow
22.5 °F
Feels Like 12 °F
N
9.4
Wind Variable Wind from NW
Gusts 55.9 mph

Today
High -- | Low -- °F
--% Chance of Precip.
Yesterday
High -- | Low -- °F
Precip. -- in
Pressure 30.34 in
Visibility 8.0 miles
Clouds Scattered Clouds 2000 ft
Mostly Cloudy 4000 ft
Overcast 7000 ft
Windchill 12 °F
Dew Point 18 °F
Humidity 82%
Rainfall 0.01 in
Snow Depth Not available.
6:34 AM 4:34 PM
Full, 100% visible
METAR KMDW 112253Z 33012KT 8SM -SN SCT020 BKN040 OVC070 M06/M09 A3030 RMK AO2 PK WND 33030/2156 SLP273 P0000 T10561089
Pressure 30.34 in
Visibility 8.0 miles
Clouds Scattered Clouds 2000 ft
Mostly Cloudy 4000 ft
Overcast 7000 ft
Windchill 12 °F
Dew Point 18 °F
Humidity 82%
Rainfall 0.01 in
Snow Depth Not available.
6:34 AM 4:34 PM
Full, 100% visible
METAR KMDW 112253Z 33012KT 8SM -SN SCT020 BKN040 OVC070 M06/M09 A3030 RMK AO2 PK WND 33030/2156 SLP273 P0000 T10561089

Get Your Daily Forecast Email!

Thanks for signing up!

Be on the lookout for a verification email in your inbox.

You'll start receiving severe weather alerts in your inbox..

×

10-Day Weather Forecast

Almanac

Astronomy

Nov. 11, 2019 Rise Set
Actual Time
Civil Twilight
Nautical Twilight
Astronomical Twilight
Moon
Length of Visible Light
Length of Day
Tomorrow will be .
, % of the Moon is Illuminated

Today's Extremes

State Highs State Lows

Community

WunderPhotos

Category 6

Welcome to Category 6. This is the collective home for Weather Underground's featured writeups by Dr. Jeff Masters (right), Bob Henson (left), Chris Burt, and other regular contributors.

Nearby

Air Quality

  Air Quality AQ Index Pollutant
Not available.

Snow Depth

Station Depth Elevation

Earthquake Activity

City Distance Mag. Time & Date
Minimum magnitude displayed is 2.5.

Coastal Water Temperatures

Place Temperature

Stations

Nearby Weather Stations

Station Location Temp. Windchill Dew Point Humidity Wind Precip. Elev Updated Type
                   

Watches & Warnings

Lakeshore Flood Warning
Issued: 3:11 PM CST Nov. 11, 2019 – National Weather Service

... Lakeshore Flood Warning remains in effect until noon CST
Tuesday...

* Lake Shore flooding... northwest winds to 35 mph will build waves
to 10 feet tonight. Winds will slowly diminish overnight and
Tuesday with waves slowly subsiding Tuesday.

* Timing... through Tuesday morning.

* Impacts... flooding and beach erosion are expected along the
Lake Michigan shoreline in Cook County.

Precautionary/preparedness actions...

A Lakeshore Flood Warning means that flooding is occurring or
imminent along the lake. Residents on or near the shore in the
warned area should be alert for rising water... and take
appropriate action to protect life and property.